createdAt,value
2017-12-15T00:02:08.737Z,95040.79
2017-12-15T00:04:36.293Z,95034.49
2017-12-15T00:07:03.800Z,95033.53
2017-12-15T00:09:31.514Z,95023.56
2017-12-15T00:11:59.020Z,95018.38
2017-12-15T00:14:26.622Z,95007.38
2017-12-15T00:16:54.723Z,95009.52
2017-12-15T00:19:22.261Z,95023.84
2017-12-15T00:21:50.658Z,95015.96
2017-12-15T00:24:18.201Z,95014.08
2017-12-15T00:26:45.758Z,95003.26
2017-12-15T00:29:13.265Z,95000.98
2017-12-15T00:31:40.817Z,94991.43
2017-12-15T00:34:08.325Z,94986.16
2017-12-15T00:36:35.829Z,94989.30
2017-12-15T00:39:03.398Z,95002.55
2017-12-15T00:41:30.947Z,95016.74
2017-12-15T00:43:58.474Z,95014.72
2017-12-15T00:46:26.232Z,95002.83
2017-12-15T00:48:53.738Z,95004.69
2017-12-15T00:51:21.249Z,95019.56
2017-12-15T00:53:49.331Z,95016.01
2017-12-15T00:56:16.925Z,95003.70
2017-12-15T00:58:44.426Z,95003.52
2017-12-15T01:01:12.056Z,95015.05
2017-12-15T01:03:39.561Z,95008.52
2017-12-15T01:06:07.071Z,95000.76
2017-12-15T01:08:34.880Z,95007.09
2017-12-15T01:11:02.438Z,95001.46
2017-12-15T01:13:29.947Z,94999.30
2017-12-15T01:15:57.633Z,95011.73
2017-12-15T01:18:25.138Z,95011.53
2017-12-15T01:20:52.673Z,95025.07
2017-12-15T01:23:20.232Z,95028.84
2017-12-15T01:25:47.743Z,95038.36
2017-12-15T01:28:15.250Z,95034.23
2017-12-15T01:30:43.114Z,95046.23
2017-12-15T01:33:10.623Z,95045.66
2017-12-15T01:35:38.131Z,95039.66
2017-12-15T01:38:05.894Z,95031.63
2017-12-15T01:40:33.403Z,95044.48
2017-12-15T01:43:00.994Z,95043.16
2017-12-15T01:45:28.723Z,95050.67
2017-12-15T01:47:56.226Z,95063.14
2017-12-15T01:50:23.731Z,95088.91
2017-12-15T01:52:51.358Z,95092.95
2017-12-15T01:55:18.911Z,95108.72
2017-12-15T01:57:46.410Z,95131.44
2017-12-15T02:00:14.130Z,95145.02
2017-12-15T02:02:41.635Z,95168.52
2017-12-15T02:05:09.143Z,95177.93
2017-12-15T02:07:36.718Z,95176.67
2017-12-15T02:10:04.268Z,95183.98
2017-12-15T02:12:31.824Z,95185.89
2017-12-15T02:14:59.589Z,95194.77
2017-12-15T02:17:27.094Z,95194.63
2017-12-15T02:19:54.604Z,95185.82
2017-12-15T02:22:22.178Z,95179.00
2017-12-15T02:24:49.723Z,95166.80
2017-12-15T02:27:17.231Z,95173.80
2017-12-15T02:29:44.770Z,95181.39
2017-12-15T02:32:12.297Z,95187.23
2017-12-15T02:34:39.860Z,95172.61
2017-12-15T02:37:07.517Z,95174.70
2017-12-15T02:39:35.077Z,95173.19
2017-12-15T02:42:02.587Z,95168.61
2017-12-15T02:44:30.135Z,95174.02
2017-12-15T02:46:57.652Z,95181.36
2017-12-15T02:49:25.162Z,95174.00
2017-12-15T02:51:52.975Z,95194.23
2017-12-15T02:54:20.486Z,95202.05
2017-12-15T02:56:48.005Z,95205.53
2017-12-15T02:59:15.578Z,95204.48
2017-12-15T03:01:43.155Z,95225.91
2017-12-15T03:04:10.667Z,95241.26
2017-12-15T03:06:38.246Z,95247.95
2017-12-15T03:09:05.788Z,95254.83
2017-12-15T03:11:33.346Z,95263.27
2017-12-15T03:14:01.210Z,95254.12
2017-12-15T03:16:29.180Z,95280.83
2017-12-15T03:18:56.683Z,95290.41
2017-12-15T03:21:24.235Z,95295.89
2017-12-15T03:23:51.754Z,95291.94
2017-12-15T03:26:19.258Z,95297.09
2017-12-15T03:28:46.975Z,95302.39
2017-12-15T03:31:14.479Z,95304.93
2017-12-15T03:33:42.095Z,95313.40
2017-12-15T03:36:09.662Z,95317.16
2017-12-15T03:38:37.166Z,95320.25
2017-12-15T03:41:04.680Z,95316.02
2017-12-15T03:43:32.431Z,95315.34
2017-12-15T03:45:59.935Z,95324.55
2017-12-15T03:48:27.449Z,95332.75
2017-12-15T03:50:55.085Z,95347.33
2017-12-15T03:53:22.589Z,95355.83
2017-12-15T03:55:50.126Z,95356.34
2017-12-15T03:58:18.030Z,95366.81
2017-12-15T04:00:45.532Z,95366.27
2017-12-15T04:03:13.041Z,95368.23
2017-12-15T04:05:40.590Z,95370.34
2017-12-15T04:08:08.098Z,95381.28
2017-12-15T04:10:35.992Z,95382.47
2017-12-15T04:13:03.759Z,95378.78
2017-12-15T04:15:31.314Z,95383.28
2017-12-15T04:17:58.874Z,95391.71
2017-12-15T04:20:26.613Z,95400.78
2017-12-15T04:22:54.130Z,95402.73
2017-12-15T04:25:21.634Z,95404.27
2017-12-15T04:27:49.189Z,95411.76
2017-12-15T04:30:16.713Z,95411.38
2017-12-15T04:32:44.219Z,95406.51
2017-12-15T04:35:11.991Z,95401.52
2017-12-15T04:37:39.551Z,95404.91
2017-12-15T04:40:07.109Z,95394.34
2017-12-15T04:42:34.823Z,95397.80
2017-12-15T04:45:02.945Z,95398.50
2017-12-15T04:47:30.447Z,95408.14
2017-12-15T04:49:58.471Z,95412.17
2017-12-15T04:52:25.982Z,95406.44
2017-12-15T04:54:53.487Z,95403.38
2017-12-15T04:57:21.150Z,95410.70
2017-12-15T04:59:48.709Z,95408.77
2017-12-15T05:02:16.269Z,95410.71
2017-12-15T05:04:43.827Z,95417.45
2017-12-15T05:07:11.333Z,95415.39
2017-12-15T05:09:38.842Z,95415.67
2017-12-15T05:12:06.449Z,95418.73
2017-12-15T05:14:33.961Z,95411.60
2017-12-15T05:17:01.462Z,95412.19
2017-12-15T05:19:29.154Z,95406.00
2017-12-15T05:21:56.653Z,95414.41
2017-12-15T05:24:24.964Z,95422.02
2017-12-15T05:26:52.984Z,95425.30
2017-12-15T05:29:20.540Z,95426.05
2017-12-15T05:31:48.042Z,95436.53
2017-12-15T05:34:15.753Z,95438.47
2017-12-15T05:36:43.259Z,95446.30
2017-12-15T05:39:10.766Z,95449.21
2017-12-15T05:41:38.548Z,95462.38
2017-12-15T05:44:06.046Z,95464.63
2017-12-15T05:46:33.560Z,95461.83
2017-12-15T05:49:01.542Z,95473.87
2017-12-15T05:51:29.088Z,95481.78
2017-12-15T05:53:56.590Z,95484.52
2017-12-15T05:56:24.223Z,95481.19
2017-12-15T05:58:51.765Z,95484.01
2017-12-15T06:01:19.265Z,95494.09
2017-12-15T06:03:46.985Z,95486.09
2017-12-15T06:06:14.490Z,95490.80
2017-12-15T06:08:42.081Z,95490.89
2017-12-15T06:11:09.841Z,95495.03
2017-12-15T06:13:37.346Z,95497.78
2017-12-15T06:16:04.902Z,95497.19
2017-12-15T06:18:32.739Z,95495.59
2017-12-15T06:21:00.243Z,95494.00
2017-12-15T06:23:27.750Z,95497.53
2017-12-15T06:25:55.326Z,95495.00
2017-12-15T06:28:22.834Z,95500.42
2017-12-15T06:30:50.374Z,95500.42
2017-12-15T06:33:18.309Z,95504.03
2017-12-15T06:35:45.869Z,95503.41
2017-12-15T06:38:13.455Z,95503.66
2017-12-15T06:40:41.211Z,95497.43
2017-12-15T06:43:08.718Z,95505.45
2017-12-15T06:45:36.719Z,95509.42
2017-12-15T06:48:04.254Z,95502.64
2017-12-15T06:50:31.757Z,95493.54
2017-12-15T06:52:59.258Z,95500.94
2017-12-15T06:55:27.015Z,95500.39
2017-12-15T06:57:54.494Z,95498.92
2017-12-15T07:00:21.999Z,95497.81
2017-12-15T07:02:49.736Z,95497.06
2017-12-15T07:05:17.250Z,95505.73
2017-12-15T07:07:44.761Z,95516.47
2017-12-15T07:10:12.311Z,95514.52
2017-12-15T07:12:40.791Z,95515.92
2017-12-15T07:15:09.273Z,95520.87
2017-12-15T07:17:37.035Z,95517.71
2017-12-15T07:20:04.533Z,95511.58
2017-12-15T07:22:32.051Z,95519.70
2017-12-15T07:24:59.789Z,95515.07
2017-12-15T07:27:27.295Z,95519.66
2017-12-15T07:29:54.812Z,95506.05
2017-12-15T07:32:22.355Z,95507.31
2017-12-15T07:34:49.872Z,95508.41
2017-12-15T07:37:17.377Z,95510.06
2017-12-15T07:39:45.272Z,95508.38
2017-12-15T07:42:12.822Z,95504.36
2017-12-15T07:44:40.362Z,95499.62
2017-12-15T07:47:07.953Z,95496.17
2017-12-15T07:49:35.514Z,95492.64
2017-12-15T07:52:03.018Z,95492.44
2017-12-15T07:54:30.627Z,95486.91
2017-12-15T07:56:58.184Z,95480.44
2017-12-15T07:59:25.745Z,95487.25
2017-12-15T08:01:53.516Z,95492.31
2017-12-15T08:04:21.022Z,95489.70
2017-12-15T08:06:48.530Z,95494.83
2017-12-15T08:09:16.597Z,95493.66
2017-12-15T08:11:44.361Z,95503.31
2017-12-15T08:14:11.917Z,95496.07
2017-12-15T08:16:40.091Z,95495.52
2017-12-15T08:19:07.878Z,95497.38
2017-12-15T08:21:35.515Z,95500.95
2017-12-15T08:24:03.506Z,95504.17
2017-12-15T08:26:31.146Z,95505.13
2017-12-15T08:28:58.798Z,95507.52
2017-12-15T08:31:26.940Z,95497.41
2017-12-15T08:33:54.494Z,95501.93
2017-12-15T08:36:22.001Z,95497.57
2017-12-15T08:38:50.339Z,95486.08
2017-12-15T08:41:18.753Z,95494.64
2017-12-15T08:43:46.304Z,95494.34
2017-12-15T08:48:47.269Z,95479.78
2017-12-15T08:51:14.886Z,95477.14
2017-12-15T08:53:42.418Z,95475.06
2017-12-15T08:56:10.815Z,95467.34
2017-12-15T08:58:41.090Z,95463.33
2017-12-15T09:01:08.595Z,95469.22
2017-12-15T09:03:36.186Z,95448.25
2017-12-15T09:06:03.976Z,95460.41
2017-12-15T09:08:33.277Z,95443.08
2017-12-15T09:11:02.386Z,95440.84
2017-12-15T09:13:30.027Z,95444.03
2017-12-15T09:15:58.302Z,95442.84
2017-12-15T09:18:25.813Z,95442.83
2017-12-15T09:20:53.364Z,95436.07
2017-12-15T09:23:21.904Z,95436.70
2017-12-15T09:25:51.355Z,95443.17
2017-12-15T09:28:20.120Z,95429.51
2017-12-15T09:30:48.442Z,95444.73
2017-12-15T09:33:17.793Z,95438.28
2017-12-15T09:35:47.197Z,95425.50
2017-12-15T09:38:16.039Z,95438.76
2017-12-15T09:40:43.725Z,95438.98
2017-12-15T09:43:11.506Z,95426.26
2017-12-15T09:45:39.877Z,95412.59
2017-12-15T09:48:07.504Z,95414.70
2017-12-15T09:50:35.105Z,95428.77
2017-12-15T09:53:02.635Z,95423.47
2017-12-15T09:55:30.142Z,95418.55
2017-12-15T09:57:58.073Z,95420.63
2017-12-15T10:00:25.586Z,95431.00
2017-12-15T10:02:53.102Z,95420.02
2017-12-15T10:05:20.853Z,95423.27
2017-12-15T10:07:48.359Z,95433.75
2017-12-15T10:10:15.870Z,95436.46
2017-12-15T10:12:43.827Z,95436.81
2017-12-15T10:15:11.335Z,95431.69
2017-12-15T10:17:38.856Z,95436.84
2017-12-15T10:20:06.620Z,95434.27
2017-12-15T10:22:34.122Z,95440.39
2017-12-15T10:25:01.633Z,95431.63
2017-12-15T10:27:29.179Z,95430.05
2017-12-15T10:29:56.681Z,95435.89
2017-12-15T10:32:24.209Z,95442.07
2017-12-15T10:34:51.846Z,95440.81
2017-12-15T10:37:19.350Z,95448.85
2017-12-15T10:39:46.884Z,95440.55
2017-12-15T10:42:14.670Z,95445.30
2017-12-15T10:44:42.208Z,95449.48
2017-12-15T10:47:09.767Z,95444.36
2017-12-15T10:49:37.506Z,95438.22
2017-12-15T10:52:05.028Z,95442.67
2017-12-15T10:54:32.534Z,95438.08
2017-12-15T10:57:00.091Z,95442.03
2017-12-15T10:59:27.604Z,95442.66
2017-12-15T11:01:55.160Z,95454.09
2017-12-15T11:04:22.732Z,95444.42
2017-12-15T11:06:50.242Z,95451.87
2017-12-15T11:09:17.747Z,95447.55
2017-12-15T11:11:45.300Z,95437.99
2017-12-15T11:14:12.917Z,95442.34
2017-12-15T11:16:40.592Z,95439.48
2017-12-15T11:19:08.137Z,95437.20
2017-12-15T11:21:35.642Z,95432.16
2017-12-15T11:24:03.152Z,95433.94
2017-12-15T11:26:30.839Z,95429.56
2017-12-15T11:28:58.347Z,95428.34
2017-12-15T11:31:25.866Z,95437.32
2017-12-15T11:33:53.439Z,95437.91
2017-12-15T11:36:20.951Z,95433.91
2017-12-15T11:38:48.523Z,95439.09
2017-12-15T11:41:16.271Z,95436.25
2017-12-15T11:43:43.774Z,95441.47
2017-12-15T11:46:11.390Z,95445.21
2017-12-15T11:48:39.153Z,95464.27
2017-12-15T11:51:06.722Z,95456.67
2017-12-15T11:53:34.272Z,95465.63
2017-12-15T11:56:02.017Z,95456.80
2017-12-15T11:58:29.526Z,95457.59
2017-12-15T12:00:57.051Z,95459.33
2017-12-15T12:03:24.917Z,95467.66
2017-12-15T12:05:52.477Z,95470.86
2017-12-15T12:08:19.983Z,95463.01
2017-12-15T12:10:47.696Z,95478.33
2017-12-15T12:13:15.201Z,95472.46
2017-12-15T12:15:42.711Z,95469.17
2017-12-15T12:18:10.258Z,95473.39
2017-12-15T12:20:37.784Z,95471.48
2017-12-15T12:23:05.302Z,95461.98
2017-12-15T12:25:33.051Z,95482.31
2017-12-15T12:28:00.563Z,95485.70
2017-12-15T12:30:28.097Z,95491.06
2017-12-15T12:32:55.654Z,95489.59
2017-12-15T12:35:23.178Z,95488.29
2017-12-15T12:37:50.687Z,95489.15
2017-12-15T12:40:18.239Z,95486.52
2017-12-15T12:42:45.742Z,95490.52
2017-12-15T12:45:13.599Z,95494.83
2017-12-15T12:47:41.193Z,95499.17
2017-12-15T12:50:08.847Z,95499.91
2017-12-15T12:52:36.409Z,95499.04
2017-12-15T12:55:03.958Z,95497.23
2017-12-15T12:57:31.465Z,95501.55
2017-12-15T12:59:59.378Z,95504.27
2017-12-15T13:02:27.978Z,95511.85
2017-12-15T13:04:55.531Z,95513.27
2017-12-15T13:07:23.043Z,95510.38
2017-12-15T13:09:50.789Z,95511.13
2017-12-15T13:12:18.310Z,95506.81
2017-12-15T13:14:45.884Z,95504.09
2017-12-15T13:17:13.473Z,95503.08
2017-12-15T13:19:41.401Z,95502.61
2017-12-15T13:22:08.958Z,95507.30
2017-12-15T13:24:36.899Z,95516.30
2017-12-15T13:27:05.101Z,95506.96
2017-12-15T13:29:32.764Z,95517.56
2017-12-15T13:32:00.517Z,95525.63
2017-12-15T13:34:28.064Z,95525.33
2017-12-15T13:36:55.849Z,95533.93
2017-12-15T13:39:24.125Z,95533.94
2017-12-15T13:41:51.684Z,95544.73
2017-12-15T13:44:19.245Z,95539.34
2017-12-15T13:46:47.211Z,95539.30
2017-12-15T13:49:14.827Z,95545.45
2017-12-15T13:51:42.364Z,95551.44
2017-12-15T13:54:10.079Z,95555.40
2017-12-15T13:56:37.948Z,95560.94
2017-12-15T13:59:05.623Z,95568.36
2017-12-15T14:01:33.169Z,95574.97
2017-12-15T14:04:00.842Z,95568.59
2017-12-15T14:06:28.484Z,95552.70
2017-12-15T14:08:56.242Z,95563.48
2017-12-15T14:11:23.975Z,95560.00
2017-12-15T14:13:51.591Z,95564.02
2017-12-15T14:16:20.072Z,95568.06
2017-12-15T14:18:47.606Z,95566.50
2017-12-15T14:21:15.117Z,95567.28
2017-12-15T14:23:42.954Z,95573.03
2017-12-15T14:26:10.479Z,95579.25
2017-12-15T14:28:38.293Z,95582.03
2017-12-15T14:31:06.138Z,95579.81
2017-12-15T14:33:33.651Z,95582.16
2017-12-15T14:36:01.158Z,95580.42
2017-12-15T14:38:28.938Z,95590.27
2017-12-15T14:40:57.198Z,95582.80
2017-12-15T14:43:24.759Z,95588.05
2017-12-15T14:45:52.726Z,95590.41
2017-12-15T14:48:20.302Z,95596.33
2017-12-15T14:50:47.844Z,95601.58
2017-12-15T14:53:15.582Z,95596.55
2017-12-15T14:55:43.098Z,95600.23
2017-12-15T14:58:10.623Z,95606.88
2017-12-15T15:00:38.228Z,95610.62
2017-12-15T15:03:05.787Z,95611.92
2017-12-15T15:05:33.402Z,95614.73
2017-12-15T15:08:01.034Z,95611.30
2017-12-15T15:10:28.594Z,95611.14
2017-12-15T15:12:56.389Z,95613.48
2017-12-15T15:15:24.156Z,95610.74
2017-12-15T15:17:51.925Z,95617.18
2017-12-15T15:20:19.782Z,95621.05
2017-12-15T15:22:47.521Z,95617.28
2017-12-15T15:25:15.206Z,95618.74
2017-12-15T15:27:42.773Z,95618.06
2017-12-15T15:30:10.339Z,95620.13
2017-12-15T15:32:38.294Z,95624.92
2017-12-15T15:35:05.944Z,95625.83
2017-12-15T15:37:34.162Z,95619.55
2017-12-15T15:40:01.756Z,95626.55
2017-12-15T15:42:29.282Z,95620.89
2017-12-15T15:44:57.321Z,95630.21
2017-12-15T15:47:24.847Z,95632.95
2017-12-15T15:49:52.354Z,95624.94
2017-12-15T15:52:19.995Z,95628.97
2017-12-15T15:54:47.553Z,95632.39
2017-12-15T15:57:15.065Z,95640.83
2017-12-15T15:59:42.797Z,95635.73
2017-12-15T16:02:10.744Z,95636.97
2017-12-15T16:04:38.273Z,95643.13
2017-12-15T16:07:05.861Z,95637.48
2017-12-15T16:09:33.450Z,95641.33
2017-12-15T16:12:00.979Z,95638.59
2017-12-15T16:14:28.747Z,95640.84
2017-12-15T16:16:56.260Z,95641.80
2017-12-15T16:19:24.169Z,95636.98
2017-12-15T16:21:51.928Z,95634.90
2017-12-15T16:24:19.493Z,95637.52
2017-12-15T16:26:47.312Z,95631.72
2017-12-15T16:29:15.224Z,95627.45
2017-12-15T16:31:42.763Z,95626.30
2017-12-15T16:34:10.343Z,95631.05
2017-12-15T16:36:38.107Z,95626.86
2017-12-15T16:39:05.886Z,95628.63
2017-12-15T16:41:33.642Z,95630.49
2017-12-15T16:44:01.500Z,95629.69
2017-12-15T16:46:29.061Z,95632.66
2017-12-15T16:48:56.598Z,95630.54
2017-12-15T16:51:24.689Z,95630.84
2017-12-15T16:53:52.254Z,95635.30
2017-12-15T16:56:20.012Z,95632.77
2017-12-15T16:58:47.675Z,95633.87
2017-12-15T17:01:15.219Z,95635.81
2017-12-15T17:03:42.727Z,95637.84
2017-12-15T17:06:10.556Z,95636.13
2017-12-15T17:08:38.115Z,95634.08
2017-12-15T17:11:05.630Z,95636.10
2017-12-15T17:13:33.542Z,95638.02
2017-12-15T17:16:01.050Z,95633.00
2017-12-15T17:18:28.565Z,95628.75
2017-12-15T17:20:56.427Z,95639.61
2017-12-15T17:23:24.012Z,95637.95
2017-12-15T17:25:51.543Z,95635.03
2017-12-15T17:28:19.299Z,95634.41
2017-12-15T17:30:46.883Z,95635.77
2017-12-15T17:33:14.578Z,95637.33
2017-12-15T17:35:42.177Z,95637.61
2017-12-15T17:38:09.671Z,95635.36
2017-12-15T17:40:37.188Z,95634.00
2017-12-15T17:43:04.995Z,95638.48
2017-12-15T17:45:32.577Z,95640.39
2017-12-15T17:48:00.127Z,95645.19
2017-12-15T17:50:27.949Z,95645.22
2017-12-15T17:52:55.512Z,95646.56
2017-12-15T17:55:23.010Z,95647.77
2017-12-15T17:57:51.446Z,95658.28
2017-12-15T18:00:19.006Z,95656.57
2017-12-15T18:02:46.568Z,95655.59
2017-12-15T18:05:14.235Z,95658.12
2017-12-15T18:07:41.733Z,95655.94
2017-12-15T18:10:09.344Z,95662.67
2017-12-15T18:12:37.006Z,95663.79
2017-12-15T18:15:04.564Z,95664.12
2017-12-15T18:17:32.124Z,95652.91
2017-12-15T18:19:59.955Z,95661.24
2017-12-15T18:22:27.462Z,95663.22
2017-12-15T18:24:54.994Z,95671.41
2017-12-15T18:27:22.875Z,95665.67
2017-12-15T18:29:50.392Z,95665.90
2017-12-15T18:32:18.084Z,95663.28
2017-12-15T18:34:46.368Z,95665.03
2017-12-15T18:37:14.031Z,95669.48
2017-12-15T18:39:41.608Z,95672.23
2017-12-15T18:42:09.459Z,95665.17
2017-12-15T18:44:38.018Z,95665.80
2017-12-15T18:47:05.802Z,95666.70
2017-12-15T18:49:33.593Z,95666.17
2017-12-15T18:52:01.331Z,95665.72
2017-12-15T18:54:28.992Z,95668.68
2017-12-15T18:56:56.676Z,95669.74
2017-12-15T18:59:24.212Z,95674.23
2017-12-15T19:01:51.977Z,95681.58
2017-12-15T19:04:19.876Z,95688.68
2017-12-15T19:06:47.611Z,95683.24
2017-12-15T19:09:15.267Z,95695.86
2017-12-15T19:11:42.827Z,95694.76
2017-12-15T19:14:10.513Z,95696.15
2017-12-15T19:16:38.663Z,95699.77
2017-12-15T19:19:06.848Z,95696.87
2017-12-15T19:21:35.439Z,95696.83
2017-12-15T19:24:03.490Z,95697.77
2017-12-15T19:26:31.799Z,95696.13
2017-12-15T19:28:59.530Z,95698.95
2017-12-15T19:31:27.196Z,95700.42
2017-12-15T19:33:55.002Z,95699.95
2017-12-15T19:36:22.718Z,95711.23
2017-12-15T19:38:54.192Z,95711.16
2017-12-15T19:41:22.035Z,95714.92
2017-12-15T19:43:50.416Z,95713.65
2017-12-15T19:46:19.118Z,95714.19
2017-12-15T19:48:46.847Z,95715.36
2017-12-15T19:51:14.733Z,95720.34
2017-12-15T19:53:42.610Z,95722.63
2017-12-15T19:56:10.422Z,95719.47
2017-12-15T19:58:38.230Z,95719.98
2017-12-15T20:01:06.091Z,95721.94
2017-12-15T20:03:33.857Z,95721.15
2017-12-15T20:06:02.463Z,95723.44
2017-12-15T20:08:30.479Z,95724.11
2017-12-15T20:10:58.280Z,95722.73
2017-12-15T20:13:26.044Z,95717.02
2017-12-15T20:15:54.007Z,95727.36
2017-12-15T20:18:21.874Z,95729.20
2017-12-15T20:20:49.687Z,95733.17
2017-12-15T20:23:17.918Z,95738.39
2017-12-15T20:25:46.291Z,95733.59
2017-12-15T20:28:14.056Z,95732.55
2017-12-15T20:30:42.144Z,95728.17
2017-12-15T20:33:09.993Z,95732.75
2017-12-15T20:35:37.869Z,95736.06
2017-12-15T20:38:05.889Z,95745.48
2017-12-15T20:40:33.796Z,95739.72
2017-12-15T20:43:01.501Z,95746.32
2017-12-15T20:45:29.451Z,95749.71
2017-12-15T20:47:57.195Z,95750.47
2017-12-15T20:50:25.178Z,95743.59
2017-12-15T20:52:53.374Z,95745.57
2017-12-15T20:55:21.098Z,95749.16
2017-12-15T20:57:48.861Z,95743.80
2017-12-15T21:00:16.848Z,95751.39
2017-12-15T21:02:45.208Z,95750.66
2017-12-15T21:05:13.190Z,95749.43
2017-12-15T21:07:41.301Z,95750.27
2017-12-15T21:10:09.322Z,95754.94
2017-12-15T21:12:36.988Z,95751.61
2017-12-15T21:15:05.162Z,95756.07
2017-12-15T21:17:32.918Z,95753.49
2017-12-15T21:20:00.494Z,95748.59
2017-12-15T21:22:28.451Z,95755.55
2017-12-15T21:24:56.007Z,95748.70
2017-12-15T21:27:23.855Z,95755.58
2017-12-15T21:29:52.043Z,95757.30
2017-12-15T21:32:19.754Z,95757.39
2017-12-15T21:34:47.476Z,95764.98
2017-12-15T21:37:15.150Z,95758.11
2017-12-15T21:39:42.691Z,95764.16
2017-12-15T21:42:10.327Z,95756.34
2017-12-15T21:44:38.013Z,95756.31
2017-12-15T21:47:05.620Z,95764.24
2017-12-15T21:49:33.336Z,95762.81
2017-12-15T21:52:01.563Z,95762.77
2017-12-15T21:54:29.534Z,95767.59
2017-12-15T21:56:57.337Z,95772.41
2017-12-15T21:59:25.212Z,95776.56
2017-12-15T22:01:53.181Z,95775.20
2017-12-15T22:04:20.763Z,95784.95
2017-12-15T22:06:48.523Z,95783.45
2017-12-15T22:09:16.063Z,95783.47
2017-12-15T22:11:44.646Z,95781.72
2017-12-15T22:14:12.718Z,95785.87
2017-12-15T22:16:40.277Z,95785.53
2017-12-15T22:19:07.836Z,95782.64
2017-12-15T22:21:35.804Z,95786.39
2017-12-15T22:24:03.466Z,95790.58
2017-12-15T22:26:31.023Z,95787.49
2017-12-15T22:28:59.198Z,95788.00
2017-12-15T22:31:26.758Z,95787.08
2017-12-15T22:33:54.334Z,95789.91
2017-12-15T22:36:21.986Z,95790.12
2017-12-15T22:38:49.537Z,95789.79
2017-12-15T22:41:17.097Z,95783.56
2017-12-15T22:43:44.785Z,95789.11
2017-12-15T22:46:12.335Z,95787.81
2017-12-15T22:48:39.876Z,95790.00
2017-12-15T22:51:07.644Z,95790.69
2017-12-15T22:53:35.694Z,95799.52
2017-12-15T22:56:03.874Z,95800.70
2017-12-15T22:58:31.754Z,95799.72
2017-12-15T23:01:00.927Z,95803.17
2017-12-15T23:03:29.654Z,95808.56
2017-12-15T23:05:57.307Z,95807.58
2017-12-15T23:08:27.535Z,95808.85
2017-12-15T23:10:55.074Z,95811.39
2017-12-15T23:13:22.737Z,95805.61
2017-12-15T23:15:50.296Z,95807.20
2017-12-15T23:18:17.857Z,95799.10
2017-12-15T23:20:46.541Z,95804.48
2017-12-15T23:23:14.963Z,95803.65
2017-12-15T23:25:44.026Z,95803.13
2017-12-15T23:28:11.780Z,95802.84
2017-12-15T23:30:39.339Z,95806.17
2017-12-15T23:33:06.858Z,95806.59
2017-12-15T23:35:34.405Z,95809.30
2017-12-15T23:38:02.412Z,95813.23
2017-12-15T23:40:29.922Z,95815.75
2017-12-15T23:42:57.545Z,95803.27
2017-12-15T23:45:25.046Z,95802.53
2017-12-15T23:47:52.588Z,95798.55
2017-12-15T23:50:20.527Z,95806.39
2017-12-15T23:52:48.043Z,95797.03
2017-12-15T23:55:27.729Z,95801.89
2017-12-15T23:57:55.238Z,95807.64
